createdAt,value
2018-04-24T00:00:09.884Z,0.00
2018-04-24T00:01:09.843Z,0.00
2018-04-24T00:02:09.847Z,0.00
2018-04-24T00:03:09.843Z,0.00
2018-04-24T00:04:09.851Z,0.00
2018-04-24T00:05:09.850Z,0.00
2018-04-24T00:06:09.834Z,0.00
2018-04-24T00:07:09.827Z,0.00
2018-04-24T00:08:09.844Z,0.00
2018-04-24T00:09:09.830Z,0.00
2018-04-24T00:10:09.805Z,0.00
2018-04-24T00:11:09.824Z,0.00
2018-04-24T00:12:09.811Z,0.00
2018-04-24T00:13:09.804Z,0.00
2018-04-24T00:14:09.809Z,0.00
2018-04-24T00:15:09.791Z,0.00
2018-04-24T00:16:09.788Z,0.00
2018-04-24T00:17:09.791Z,0.00
2018-04-24T00:18:09.852Z,0.00
2018-04-24T00:19:09.780Z,0.00
2018-04-24T00:20:09.786Z,0.00
2018-04-24T00:21:09.765Z,0.00
2018-04-24T00:22:09.764Z,0.00
2018-04-24T00:23:09.794Z,0.00
2018-04-24T00:24:09.775Z,0.00
2018-04-24T00:25:09.752Z,0.00
2018-04-24T00:26:09.833Z,0.00
2018-04-24T00:27:09.749Z,0.00
2018-04-24T00:28:09.739Z,0.00
2018-04-24T00:29:09.740Z,0.00
2018-04-24T00:30:09.725Z,0.00
2018-04-24T00:31:09.742Z,0.00
2018-04-24T00:32:09.723Z,0.00
2018-04-24T00:33:09.717Z,0.00
2018-04-24T00:34:09.736Z,0.00
2018-04-24T00:35:09.710Z,0.00
2018-04-24T00:36:09.731Z,0.00
2018-04-24T00:37:09.699Z,0.00
2018-04-24T00:38:09.705Z,0.00
2018-04-24T00:39:09.699Z,0.00
2018-04-24T00:40:09.695Z,0.00
2018-04-24T00:41:09.689Z,0.00
2018-04-24T00:42:09.690Z,0.00
2018-04-24T00:43:09.689Z,0.00
2018-04-24T00:44:09.675Z,0.00
2018-04-24T00:45:09.676Z,0.00
2018-04-24T00:46:09.670Z,0.00
2018-04-24T00:47:09.662Z,0.00
2018-04-24T00:48:09.668Z,0.00
2018-04-24T00:49:09.653Z,0.00
2018-04-24T00:50:09.650Z,0.00
2018-04-24T00:51:09.648Z,0.00
2018-04-24T00:52:09.648Z,0.00
2018-04-24T00:53:09.640Z,0.00
2018-04-24T00:54:09.635Z,0.00
2018-04-24T00:55:09.651Z,0.00
2018-04-24T00:56:09.626Z,0.00
2018-04-24T00:57:09.623Z,0.00
2018-04-24T00:58:09.611Z,0.00
2018-04-24T00:59:09.607Z,0.00
2018-04-24T01:00:09.610Z,0.00
2018-04-24T01:01:09.685Z,0.00
2018-04-24T01:02:09.622Z,0.00
2018-04-24T01:03:09.598Z,0.00
2018-04-24T01:04:09.593Z,0.00
2018-04-24T01:05:09.598Z,0.00
2018-04-24T01:06:09.590Z,0.00
2018-04-24T01:07:09.584Z,0.00
2018-04-24T01:08:09.567Z,0.00
2018-04-24T01:09:09.575Z,0.00
2018-04-24T01:10:09.571Z,0.00
2018-04-24T01:11:09.582Z,0.00
2018-04-24T01:12:09.563Z,0.00
2018-04-24T01:13:09.558Z,0.00
2018-04-24T01:14:09.563Z,0.00
2018-04-24T01:15:09.555Z,0.00
2018-04-24T01:16:09.582Z,0.00
2018-04-24T01:17:09.588Z,0.00
2018-04-24T01:18:09.533Z,0.00
2018-04-24T01:19:09.541Z,0.00
2018-04-24T01:20:09.527Z,0.00
2018-04-24T01:21:09.534Z,0.00
2018-04-24T01:22:09.519Z,0.00
2018-04-24T01:23:09.512Z,0.00
2018-04-24T01:24:09.510Z,0.00
2018-04-24T01:25:09.526Z,0.00
2018-04-24T01:26:09.493Z,0.00
2018-04-24T01:27:09.520Z,0.00
2018-04-24T01:28:09.493Z,0.00
2018-04-24T01:29:09.498Z,0.00
2018-04-24T02:02:29.018Z,0.00
2018-04-24T02:03:28.985Z,0.00
2018-04-24T02:05:21.881Z,0.00
2018-04-24T02:06:21.847Z,0.00
2018-04-24T02:08:14.790Z,0.00
2018-04-24T02:09:14.750Z,0.00
2018-04-24T02:11:07.756Z,0.00
2018-04-24T02:12:07.711Z,0.00
2018-04-24T02:14:00.615Z,0.00
2018-04-24T02:15:00.594Z,0.00
2018-04-24T02:16:53.516Z,0.00
2018-04-24T02:17:53.476Z,0.00
2018-04-24T02:19:46.446Z,0.00
2018-04-24T02:20:46.417Z,0.00
2018-04-24T02:22:39.457Z,0.00
2018-04-24T02:23:39.352Z,0.00
2018-04-24T02:25:32.336Z,0.00
2018-04-24T02:26:32.314Z,0.00
2018-04-24T02:28:25.333Z,0.00
2018-04-24T02:29:25.306Z,0.00
2018-04-24T02:31:18.261Z,0.00
2018-04-24T02:32:18.231Z,0.00
2018-04-24T02:34:11.196Z,0.00
2018-04-24T02:35:11.179Z,0.00
2018-04-24T02:37:04.237Z,0.00
2018-04-24T02:38:04.202Z,0.00
2018-04-24T02:39:57.199Z,0.00
2018-04-24T02:40:57.091Z,0.00
2018-04-24T02:42:50.073Z,0.00
2018-04-24T02:43:50.050Z,0.00
2018-04-24T02:45:43.008Z,0.00
2018-04-24T02:46:42.991Z,0.00
2018-04-24T02:48:35.907Z,0.00
2018-04-24T02:49:35.882Z,0.00
2018-04-24T02:50:35.878Z,0.00
2018-04-24T02:51:35.879Z,0.00
2018-04-24T02:52:35.867Z,0.00
2018-04-24T02:53:35.877Z,0.00
2018-04-24T02:54:35.858Z,0.00
2018-04-24T02:55:35.854Z,0.00
2018-04-24T02:56:35.845Z,0.00
2018-04-24T02:57:35.846Z,0.00
2018-04-24T02:58:35.839Z,0.00
2018-04-24T02:59:35.831Z,0.00
2018-04-24T03:00:35.825Z,0.00
2018-04-24T03:01:35.892Z,0.00
2018-04-24T03:02:35.811Z,0.00
2018-04-24T03:03:35.831Z,0.00
2018-04-24T03:04:35.809Z,0.00
2018-04-24T03:05:35.803Z,0.00
2018-04-24T03:06:35.813Z,0.00
2018-04-24T03:07:35.804Z,0.00
2018-04-24T03:08:35.790Z,0.00
2018-04-24T03:09:35.777Z,0.00
2018-04-24T03:10:35.799Z,0.00
2018-04-24T03:11:35.786Z,0.00
2018-04-24T03:12:35.779Z,0.00
2018-04-24T03:13:35.767Z,0.00
2018-04-24T03:14:35.760Z,0.00
2018-04-24T03:15:35.762Z,0.00
2018-04-24T03:16:35.765Z,0.00
2018-04-24T03:17:35.762Z,0.00
2018-04-24T03:18:35.733Z,0.00
2018-04-24T03:19:35.737Z,0.00
2018-04-24T03:20:35.733Z,0.00
2018-04-24T03:21:35.744Z,0.00
2018-04-24T03:22:35.724Z,0.00
2018-04-24T03:23:35.718Z,0.00
2018-04-24T03:24:35.713Z,0.00
2018-04-24T03:25:35.709Z,0.00
2018-04-24T03:26:35.700Z,0.00
2018-04-24T03:27:35.703Z,0.00
2018-04-24T03:28:35.695Z,0.00
2018-04-24T03:29:35.676Z,0.00
2018-04-24T03:30:35.683Z,0.00
2018-04-24T03:31:35.691Z,0.00
2018-04-24T03:32:35.674Z,0.00
2018-04-24T03:33:35.663Z,0.00
2018-04-24T03:34:35.665Z,0.00
2018-04-24T03:35:35.665Z,0.00
2018-04-24T03:36:35.652Z,0.00
2018-04-24T03:37:35.662Z,0.00
2018-04-24T03:38:35.662Z,0.00
2018-04-24T03:39:35.665Z,0.00
2018-04-24T03:40:35.636Z,0.00
2018-04-24T03:41:35.655Z,0.00
2018-04-24T03:42:35.652Z,0.00
2018-04-24T03:43:35.624Z,0.00
2018-04-24T03:44:35.610Z,0.00
2018-04-24T03:45:35.620Z,0.00
2018-04-24T03:46:35.615Z,0.00
2018-04-24T03:47:35.616Z,4.00
2018-04-24T03:48:35.606Z,4.00
2018-04-24T03:49:35.599Z,4.00
2018-04-24T03:50:35.604Z,4.00
2018-04-24T03:51:35.619Z,0.00
2018-04-24T03:52:35.590Z,4.00
2018-04-24T03:53:35.576Z,8.00
2018-04-24T03:54:35.571Z,4.00
2018-04-24T03:55:35.573Z,4.00
2018-04-24T03:56:35.567Z,8.00
2018-04-24T03:57:35.571Z,8.00
2018-04-24T03:58:35.567Z,8.00
2018-04-24T03:59:35.554Z,12.00
2018-04-24T04:00:35.550Z,12.00
2018-04-24T04:01:35.551Z,16.00
2018-04-24T04:02:35.549Z,20.00
2018-04-24T04:03:35.541Z,24.00
2018-04-24T04:04:35.535Z,24.00
2018-04-24T04:05:35.535Z,32.00
2018-04-24T04:06:35.525Z,36.00
2018-04-24T04:07:35.526Z,44.00
2018-04-24T04:08:35.514Z,52.00
2018-04-24T04:09:35.525Z,68.00
2018-04-24T04:10:35.513Z,80.00
2018-04-24T04:11:35.505Z,100.00
2018-04-24T04:12:35.521Z,116.00
2018-04-24T04:13:35.566Z,136.00
2018-04-24T04:14:35.493Z,156.00
2018-04-24T04:15:35.492Z,176.00
2018-04-24T04:16:35.712Z,196.00
2018-04-24T04:17:35.483Z,224.00
2018-04-24T04:18:36.467Z,252.00
2018-04-24T04:19:35.475Z,284.00
2018-04-24T04:20:35.465Z,312.00
2018-04-24T04:21:35.460Z,348.00
2018-04-24T04:22:35.498Z,388.00
2018-04-24T04:23:35.456Z,440.00
2018-04-24T04:24:35.461Z,508.00
2018-04-24T04:25:35.459Z,580.00
2018-04-24T04:26:35.463Z,660.00
2018-04-24T04:27:35.438Z,736.00
2018-04-24T04:28:35.435Z,812.00
2018-04-24T04:29:35.425Z,884.00
2018-04-24T04:30:35.431Z,960.00
2018-04-24T04:31:35.425Z,1044.00
2018-04-24T04:32:35.418Z,1140.00
2018-04-24T04:33:35.417Z,1244.00
2018-04-24T04:34:35.477Z,1360.00
2018-04-24T04:35:35.405Z,1472.00
2018-04-24T04:36:35.483Z,1596.00
2018-04-24T04:37:35.483Z,1724.00
2018-04-24T04:38:35.462Z,1824.00
2018-04-24T04:39:35.469Z,1904.00
2018-04-24T04:40:35.470Z,1988.00
2018-04-24T04:41:35.485Z,2104.00
2018-04-24T04:42:35.485Z,2240.00
2018-04-24T04:43:35.439Z,2520.00
2018-04-24T04:44:35.502Z,2808.00
2018-04-24T04:45:35.447Z,2912.00
2018-04-24T04:46:35.374Z,2916.00
2018-04-24T04:47:35.480Z,2948.00
2018-04-24T04:48:35.519Z,2952.00
2018-04-24T04:49:35.499Z,2952.00
2018-04-24T04:50:35.391Z,3024.00
2018-04-24T04:51:35.523Z,3140.00
2018-04-24T04:52:35.483Z,3280.00
2018-04-24T04:53:35.372Z,3380.00
2018-04-24T04:54:35.361Z,3468.00
2018-04-24T04:55:35.369Z,3552.00
2018-04-24T04:56:35.394Z,3628.00
2018-04-24T04:57:35.341Z,3740.00
2018-04-24T04:58:35.345Z,3820.00
2018-04-24T04:59:35.329Z,3928.00
2018-04-24T05:00:35.338Z,4032.00
2018-04-24T05:01:35.346Z,4104.00
2018-04-24T05:02:35.342Z,4304.00
2018-04-24T05:03:35.398Z,4376.00
2018-04-24T05:04:35.389Z,4376.00
2018-04-24T05:05:35.370Z,4324.00
2018-04-24T05:06:36.058Z,4376.00
2018-04-24T05:07:35.298Z,4444.00
2018-04-24T05:08:35.311Z,4540.00
2018-04-24T05:09:35.295Z,4620.00
2018-04-24T05:10:35.288Z,4656.00
2018-04-24T05:11:35.323Z,4884.00
2018-04-24T05:12:35.324Z,5068.00
2018-04-24T05:13:35.312Z,5256.00
2018-04-24T05:14:35.312Z,5472.00
2018-04-24T05:15:35.314Z,5552.00
2018-04-24T05:16:35.975Z,5900.00
2018-04-24T05:17:35.265Z,6112.00
2018-04-24T05:18:35.312Z,6308.00
2018-04-24T05:19:35.249Z,6368.00
2018-04-24T05:20:35.268Z,6644.00
2018-04-24T05:21:35.271Z,7192.00
2018-04-24T05:22:35.277Z,7980.00
2018-04-24T05:23:35.293Z,8524.00
2018-04-24T05:24:35.248Z,8896.00
2018-04-24T05:25:35.287Z,8480.00
2018-04-24T05:26:35.336Z,7956.00
2018-04-24T05:27:35.258Z,7772.00
2018-04-24T05:28:35.267Z,6828.00
2018-04-24T05:29:35.253Z,5924.00
2018-04-24T05:30:35.245Z,5544.00
2018-04-24T05:31:35.227Z,5572.00
2018-04-24T05:32:35.254Z,6112.00
2018-04-24T05:33:35.212Z,7640.00
2018-04-24T05:34:35.223Z,8956.00
2018-04-24T05:35:35.220Z,9264.00
2018-04-24T05:36:35.230Z,9080.00
2018-04-24T05:37:35.238Z,8820.00
2018-04-24T05:38:35.193Z,9068.00
2018-04-24T05:39:35.208Z,8684.00
2018-04-24T05:40:35.246Z,8028.00
2018-04-24T05:41:35.253Z,7728.00
2018-04-24T05:42:35.213Z,7808.00
2018-04-24T05:43:35.225Z,8468.00
2018-04-24T05:44:35.214Z,9272.00
2018-04-24T05:45:35.219Z,10072.00
2018-04-24T05:46:35.285Z,10452.00
2018-04-24T05:47:35.885Z,10164.00
2018-04-24T05:48:35.283Z,9592.00
2018-04-24T05:49:35.169Z,7784.00
2018-04-24T05:50:35.175Z,7144.00
2018-04-24T05:51:35.182Z,7120.00
2018-04-24T05:52:35.167Z,7752.00
2018-04-24T05:53:35.167Z,9752.00
2018-04-24T05:54:35.167Z,10432.00
2018-04-24T05:55:35.187Z,10360.00
2018-04-24T05:56:35.185Z,10188.00
2018-04-24T05:57:35.190Z,9100.00
2018-04-24T05:58:35.204Z,10276.00
2018-04-24T05:59:35.186Z,11008.00
2018-04-24T06:00:35.213Z,11096.00
2018-04-24T06:01:35.154Z,11132.00
2018-04-24T06:02:35.163Z,11032.00
2018-04-24T06:03:35.156Z,11592.00
2018-04-24T06:04:35.143Z,12556.00
2018-04-24T06:05:35.141Z,12996.00
2018-04-24T06:06:35.154Z,14848.00
2018-04-24T06:07:35.166Z,14344.00
2018-04-24T06:08:35.244Z,12916.00
2018-04-24T06:09:36.062Z,12532.00
2018-04-24T06:10:35.189Z,11688.00
2018-04-24T06:11:35.180Z,10784.00
2018-04-24T06:12:35.190Z,10084.00
2018-04-24T06:13:35.150Z,10864.00
2018-04-24T06:14:35.150Z,11768.00
2018-04-24T06:15:38.047Z,12968.00
2018-04-24T06:16:35.129Z,12420.00
2018-04-24T06:17:35.170Z,12268.00
2018-04-24T06:18:35.152Z,11516.00
2018-04-24T06:19:35.141Z,11420.00
2018-04-24T06:20:35.136Z,11312.00
2018-04-24T06:21:35.147Z,12548.00
2018-04-24T06:22:35.197Z,12176.00
2018-04-24T06:23:35.128Z,11528.00
2018-04-24T06:24:35.162Z,12424.00
2018-04-24T06:25:35.119Z,14348.00
2018-04-24T06:26:35.106Z,14348.00
2018-04-24T06:27:35.120Z,14248.00
2018-04-24T06:28:35.143Z,15188.00
2018-04-24T06:29:35.096Z,13248.00
2018-04-24T06:30:35.086Z,13064.00
2018-04-24T06:31:35.174Z,13356.00
2018-04-24T06:32:36.027Z,14308.00
2018-04-24T06:33:35.118Z,11752.00
2018-04-24T06:34:35.137Z,11024.00
2018-04-24T06:35:35.139Z,14092.00
2018-04-24T06:36:35.140Z,16320.00
2018-04-24T06:37:35.151Z,20288.00
2018-04-24T06:38:35.103Z,14716.00
2018-04-24T06:39:35.097Z,20224.00
2018-04-24T06:40:35.083Z,14472.00
2018-04-24T06:41:35.128Z,14572.00
2018-04-24T06:42:35.101Z,15744.00
2018-04-24T06:43:35.104Z,19520.00
2018-04-24T06:44:35.103Z,16832.00
2018-04-24T06:45:35.063Z,17568.00
2018-04-24T06:46:35.065Z,16288.00
2018-04-24T06:47:35.080Z,15776.00
2018-04-24T06:48:35.140Z,14664.00
2018-04-24T06:49:35.076Z,14468.00
2018-04-24T06:50:35.124Z,14644.00
2018-04-24T06:51:35.134Z,11020.00
2018-04-24T06:52:35.108Z,12260.00
2018-04-24T06:53:35.109Z,11228.00
2018-04-24T06:54:35.081Z,11512.00
2018-04-24T06:55:35.091Z,12984.00
2018-04-24T06:56:35.120Z,10716.00
2018-04-24T06:57:35.122Z,13436.00
2018-04-24T06:58:35.112Z,12980.00
2018-04-24T06:59:35.114Z,13676.00
2018-04-24T07:00:35.080Z,13708.00
2018-04-24T07:01:35.102Z,13136.00
2018-04-24T07:02:35.116Z,12872.00
2018-04-24T07:03:35.112Z,12704.00
2018-04-24T07:04:35.082Z,12792.00
2018-04-24T07:05:35.146Z,12776.00
2018-04-24T07:06:35.099Z,12876.00
2018-04-24T07:07:35.111Z,13168.00
2018-04-24T07:08:35.112Z,14236.00
2018-04-24T07:09:35.102Z,14980.00
2018-04-24T07:10:35.111Z,17920.00
2018-04-24T07:11:35.109Z,18560.00
2018-04-24T07:12:35.065Z,18880.00
2018-04-24T07:13:35.112Z,16608.00
2018-04-24T07:14:35.104Z,13084.00
2018-04-24T07:15:35.088Z,16608.00
2018-04-24T07:16:35.098Z,15968.00
2018-04-24T07:17:35.107Z,16864.00
2018-04-24T07:18:35.078Z,17696.00
2018-04-24T07:19:35.111Z,23904.00
2018-04-24T07:20:35.088Z,32480.00
2018-04-24T07:21:35.103Z,28192.00
2018-04-24T07:22:35.137Z,36928.00
2018-04-24T07:23:35.143Z,36800.00
2018-04-24T07:24:35.121Z,35872.00
2018-04-24T07:25:35.120Z,35424.00
2018-04-24T07:26:35.113Z,35712.00
2018-04-24T07:27:35.120Z,35904.00
2018-04-24T07:28:35.110Z,34784.00
2018-04-24T07:29:35.107Z,36384.00
2018-04-24T07:30:35.159Z,33952.00
2018-04-24T07:31:35.120Z,38624.00
2018-04-24T07:32:35.129Z,29280.00
2018-04-24T07:33:35.163Z,36256.00
2018-04-24T07:34:35.177Z,36960.00
2018-04-24T07:35:35.160Z,38400.00
2018-04-24T07:36:35.214Z,37088.00
2018-04-24T07:37:35.158Z,37824.00
2018-04-24T07:38:35.180Z,38016.00
2018-04-24T07:39:35.913Z,35904.00
2018-04-24T07:40:35.191Z,34944.00
2018-04-24T07:41:35.235Z,36832.00
2018-04-24T07:42:35.249Z,38624.00
2018-04-24T07:43:35.204Z,39648.00
2018-04-24T07:44:35.225Z,40128.00
2018-04-24T07:45:35.273Z,36480.00
2018-04-24T07:46:35.347Z,37888.00
2018-04-24T07:47:35.299Z,38176.00
2018-04-24T07:48:35.311Z,37952.00
2018-04-24T07:49:35.275Z,33280.00
2018-04-24T07:50:35.292Z,21088.00
2018-04-24T07:51:35.326Z,16900.00
2018-04-24T07:52:35.304Z,34720.00
2018-04-24T07:53:35.361Z,31008.00
2018-04-24T07:54:35.362Z,34048.00
2018-04-24T07:55:35.362Z,33344.00
2018-04-24T07:56:35.381Z,33856.00
2018-04-24T07:57:35.327Z,35328.00
2018-04-24T07:58:35.361Z,37632.00
2018-04-24T07:59:35.361Z,37632.00
2018-04-24T08:00:35.392Z,37664.00
2018-04-24T08:01:35.393Z,38400.00
2018-04-24T08:02:35.376Z,38080.00
2018-04-24T08:03:35.375Z,37952.00
2018-04-24T08:04:35.379Z,38848.00
2018-04-24T08:05:35.413Z,37792.00
2018-04-24T08:06:35.415Z,36960.00
2018-04-24T08:07:35.428Z,36896.00
2018-04-24T08:08:35.425Z,36864.00
2018-04-24T08:09:35.443Z,36352.00
2018-04-24T08:10:35.452Z,35712.00
2018-04-24T08:11:35.463Z,36512.00
2018-04-24T08:12:35.508Z,35872.00
2018-04-24T08:13:35.476Z,38528.00
2018-04-24T08:14:35.502Z,41056.00
2018-04-24T08:15:35.506Z,40128.00
2018-04-24T08:16:35.538Z,38080.00
2018-04-24T08:17:35.519Z,41344.00
2018-04-24T08:18:35.534Z,43648.00
2018-04-24T08:19:35.547Z,50592.00
2018-04-24T08:20:35.554Z,51008.00
2018-04-24T08:21:35.605Z,49632.00
2018-04-24T08:22:35.639Z,25024.00
2018-04-24T08:23:35.596Z,19904.00
2018-04-24T08:24:35.609Z,24256.00
2018-04-24T08:25:35.622Z,29280.00
2018-04-24T08:26:35.632Z,34080.00
2018-04-24T08:27:35.639Z,27424.00
2018-04-24T08:28:35.651Z,35456.00
2018-04-24T08:29:35.688Z,36576.00
2018-04-24T08:30:35.673Z,29376.00
2018-04-24T08:31:35.689Z,19040.00
2018-04-24T08:32:35.744Z,15268.00
2018-04-24T08:33:35.705Z,11928.00
2018-04-24T08:34:35.713Z,10228.00
2018-04-24T08:35:35.721Z,12516.00
2018-04-24T08:36:35.729Z,18176.00
2018-04-24T08:37:35.736Z,23872.00
2018-04-24T08:38:35.747Z,27456.00
2018-04-24T08:39:35.757Z,23040.00
2018-04-24T08:40:35.758Z,17632.00
2018-04-24T08:41:35.780Z,17308.00
2018-04-24T08:42:35.772Z,47680.00
2018-04-24T08:43:35.771Z,47360.00
2018-04-24T08:44:35.779Z,48320.00
2018-04-24T08:45:35.788Z,47680.00
2018-04-24T08:46:35.791Z,49184.00
2018-04-24T08:47:35.798Z,49216.00
2018-04-24T08:48:35.808Z,50656.00
2018-04-24T08:49:35.918Z,26880.00
2018-04-24T08:50:35.922Z,61344.00
2018-04-24T08:51:35.833Z,59360.00
2018-04-24T08:52:35.847Z,37056.00
2018-04-24T08:53:35.878Z,65280.00
2018-04-24T08:54:35.873Z,64032.00
2018-04-24T08:55:35.877Z,60096.00
2018-04-24T08:56:35.894Z,56032.00
2018-04-24T08:57:35.895Z,55200.00
2018-04-24T08:58:35.918Z,57280.00
2018-04-24T08:59:35.930Z,57472.00
2018-04-24T09:00:35.950Z,53600.00
2018-04-24T09:01:35.959Z,55296.00
2018-04-24T09:02:35.972Z,56096.00
2018-04-24T09:03:35.984Z,58400.00
2018-04-24T09:04:36.001Z,60896.00
2018-04-24T09:05:36.031Z,66752.00
2018-04-24T09:06:36.039Z,76736.00
2018-04-24T09:07:36.058Z,84640.00
2018-04-24T09:08:36.096Z,72576.00
2018-04-24T09:09:36.086Z,81344.00
2018-04-24T09:10:36.099Z,81792.00
2018-04-24T09:11:36.115Z,78528.00
2018-04-24T09:12:36.127Z,72576.00
2018-04-24T09:13:36.147Z,75904.00
2018-04-24T09:14:36.167Z,78016.00
2018-04-24T09:15:36.180Z,76160.00
2018-04-24T09:16:36.197Z,78816.00
2018-04-24T09:17:36.224Z,23072.00
2018-04-24T09:18:36.244Z,71168.00
2018-04-24T09:19:36.260Z,70144.00
2018-04-24T09:20:36.284Z,62144.00
2018-04-24T09:21:36.302Z,58720.00
2018-04-24T09:22:36.312Z,58560.00
2018-04-24T09:23:36.344Z,57376.00
2018-04-24T09:24:36.358Z,56768.00
2018-04-24T09:25:36.374Z,55328.00
2018-04-24T09:26:36.400Z,57728.00
2018-04-24T09:27:36.412Z,58656.00
2018-04-24T09:28:36.423Z,65664.00
2018-04-24T09:29:36.449Z,67680.00
2018-04-24T09:30:36.504Z,65696.00
2018-04-24T09:31:36.485Z,62848.00
2018-04-24T09:32:36.503Z,62080.00
2018-04-24T09:33:36.642Z,58592.00
2018-04-24T09:34:36.541Z,51456.00
2018-04-24T09:35:36.566Z,58816.00
2018-04-24T09:36:36.588Z,59168.00
2018-04-24T09:37:36.597Z,57632.00
2018-04-24T09:38:36.621Z,60384.00
2018-04-24T09:39:36.636Z,56032.00
2018-04-24T09:40:36.665Z,53664.00
2018-04-24T09:41:36.672Z,55328.00
2018-04-24T09:42:36.695Z,58272.00
2018-04-24T09:43:36.709Z,61344.00
2018-04-24T09:44:36.735Z,62048.00
2018-04-24T09:45:36.754Z,64448.00
2018-04-24T09:46:36.761Z,61248.00
2018-04-24T09:47:36.781Z,57248.00
2018-04-24T09:48:36.801Z,59680.00
2018-04-24T09:49:36.829Z,61856.00
2018-04-24T09:50:36.842Z,61536.00
2018-04-24T09:51:36.850Z,59680.00
2018-04-24T09:52:36.872Z,61440.00
2018-04-24T09:53:36.896Z,68128.00
2018-04-24T09:54:36.902Z,69792.00
2018-04-24T09:55:36.936Z,67776.00
2018-04-24T09:56:37.000Z,68288.00
2018-04-24T09:57:36.974Z,69280.00
2018-04-24T09:58:37.027Z,74016.00
2018-04-24T09:59:37.006Z,80128.00
2018-04-24T10:00:37.020Z,76288.00
2018-04-24T10:01:37.038Z,74784.00
2018-04-24T10:02:37.053Z,78976.00
2018-04-24T10:03:37.088Z,81536.00
2018-04-24T10:04:37.088Z,79520.00
2018-04-24T10:05:37.109Z,75744.00
2018-04-24T10:06:37.128Z,72320.00
2018-04-24T10:07:37.146Z,61728.00
2018-04-24T10:08:37.165Z,64512.00
2018-04-24T10:09:37.193Z,57728.00
2018-04-24T10:10:37.200Z,20640.00
2018-04-24T10:11:37.223Z,22272.00
2018-04-24T10:12:37.244Z,21760.00
2018-04-24T10:13:37.334Z,57536.00
2018-04-24T10:14:37.269Z,73056.00
2018-04-24T10:15:37.294Z,23808.00
2018-04-24T10:16:37.307Z,63840.00
2018-04-24T10:17:37.329Z,12680.00
2018-04-24T10:18:37.343Z,12656.00
2018-04-24T10:19:37.388Z,16420.00
2018-04-24T10:20:37.375Z,52064.00
2018-04-24T10:21:37.400Z,22208.00
2018-04-24T10:22:37.397Z,22144.00
2018-04-24T10:23:37.500Z,80512.00
2018-04-24T10:24:37.440Z,61152.00
2018-04-24T10:25:37.462Z,17628.00
2018-04-24T10:26:37.458Z,66016.00
2018-04-24T10:27:37.477Z,75584.00
2018-04-24T10:28:37.492Z,80320.00
2018-04-24T10:29:37.499Z,78880.00
2018-04-24T10:30:37.515Z,75264.00
2018-04-24T10:31:37.528Z,77568.00
2018-04-24T10:32:37.544Z,82176.00
2018-04-24T10:33:37.551Z,81024.00
2018-04-24T10:34:37.571Z,82080.00
2018-04-24T10:35:37.605Z,82688.00
2018-04-24T10:36:37.601Z,78912.00
2018-04-24T10:37:37.609Z,77728.00
2018-04-24T10:38:37.690Z,77600.00
2018-04-24T10:39:37.655Z,84736.00
2018-04-24T10:40:37.658Z,85920.00
2018-04-24T10:41:37.675Z,83264.00
2018-04-24T10:42:37.696Z,36320.00
2018-04-24T10:43:37.711Z,40224.00
2018-04-24T10:44:37.749Z,22592.00
2018-04-24T10:45:37.746Z,52832.00
2018-04-24T10:46:37.762Z,82848.00
2018-04-24T10:47:37.784Z,16824.00
2018-04-24T10:48:37.790Z,13056.00
2018-04-24T10:49:37.817Z,72768.00
2018-04-24T10:50:37.817Z,63712.00
2018-04-24T10:51:37.870Z,78656.00
2018-04-24T10:52:37.863Z,44288.00
2018-04-24T10:53:37.861Z,15924.00
2018-04-24T10:54:37.872Z,21344.00
2018-04-24T10:55:37.896Z,25856.00
2018-04-24T10:56:37.910Z,83744.00
2018-04-24T10:57:37.928Z,79712.00
2018-04-24T10:58:37.935Z,79840.00
2018-04-24T10:59:37.948Z,75904.00
2018-04-24T11:00:38.021Z,73792.00
2018-04-24T11:01:37.978Z,75392.00
2018-04-24T11:02:37.990Z,77312.00
2018-04-24T11:03:38.011Z,76128.00
2018-04-24T11:04:38.018Z,74272.00
2018-04-24T11:05:38.034Z,74528.00
2018-04-24T11:06:38.055Z,25824.00
2018-04-24T11:07:38.068Z,26720.00
2018-04-24T11:08:38.079Z,67872.00
2018-04-24T11:09:38.099Z,71776.00
2018-04-24T11:10:38.116Z,74624.00
2018-04-24T11:11:38.138Z,75904.00
2018-04-24T11:12:38.140Z,71232.00
2018-04-24T11:13:38.166Z,75552.00
2018-04-24T11:14:38.172Z,74592.00
2018-04-24T11:15:38.189Z,77536.00
2018-04-24T11:16:38.207Z,75680.00
2018-04-24T11:17:38.248Z,75008.00
2018-04-24T11:18:38.236Z,77408.00
2018-04-24T11:19:38.266Z,75040.00
2018-04-24T11:20:38.270Z,74176.00
2018-04-24T11:21:38.292Z,72064.00
2018-04-24T11:22:38.348Z,71488.00
2018-04-24T11:23:38.318Z,69984.00
2018-04-24T11:24:38.354Z,69952.00
2018-04-24T11:25:38.372Z,74240.00
2018-04-24T11:26:38.374Z,72960.00
2018-04-24T11:27:38.465Z,71904.00
2018-04-24T11:28:38.412Z,69088.00
2018-04-24T11:29:38.424Z,68608.00
2018-04-24T11:30:38.442Z,71200.00
2018-04-24T11:31:39.436Z,71904.00
2018-04-24T11:32:38.485Z,70784.00
2018-04-24T11:33:38.497Z,67872.00
2018-04-24T11:34:38.542Z,69920.00
2018-04-24T11:35:38.531Z,67040.00
2018-04-24T11:36:38.580Z,67776.00
2018-04-24T11:37:38.564Z,69536.00
2018-04-24T11:38:38.578Z,69408.00
2018-04-24T11:39:38.596Z,65792.00
2018-04-24T11:40:38.618Z,64992.00
2018-04-24T11:41:38.707Z,64672.00
2018-04-24T11:42:38.649Z,64864.00
2018-04-24T11:43:38.665Z,66560.00
2018-04-24T11:44:38.679Z,66944.00
2018-04-24T11:45:38.701Z,67808.00
2018-04-24T11:46:38.730Z,70080.00
2018-04-24T11:47:38.734Z,71264.00
2018-04-24T11:48:38.759Z,75168.00
2018-04-24T11:49:38.830Z,70848.00
2018-04-24T11:50:38.775Z,68864.00
2018-04-24T11:51:38.804Z,68736.00
2018-04-24T11:52:38.809Z,72384.00
2018-04-24T11:53:38.829Z,70816.00
2018-04-24T11:54:38.849Z,67936.00
2018-04-24T11:55:38.874Z,68416.00
2018-04-24T11:56:38.883Z,68224.00
2018-04-24T11:57:38.903Z,73056.00
2018-04-24T11:58:38.921Z,71296.00
2018-04-24T11:59:38.929Z,64672.00
2018-04-24T12:00:38.949Z,66528.00
2018-04-24T12:01:38.969Z,69248.00
2018-04-24T12:02:39.027Z,69504.00
2018-04-24T12:03:38.994Z,68992.00
2018-04-24T12:04:39.019Z,67744.00
2018-04-24T12:05:39.028Z,67008.00
2018-04-24T12:06:39.045Z,68192.00
2018-04-24T12:07:39.058Z,68448.00
2018-04-24T12:08:39.076Z,64640.00
2018-04-24T12:09:39.097Z,65696.00
2018-04-24T12:10:39.115Z,65888.00
2018-04-24T12:11:39.131Z,63680.00
2018-04-24T12:12:39.152Z,61984.00
2018-04-24T12:13:39.168Z,63552.00
2018-04-24T12:14:39.192Z,64256.00
2018-04-24T12:15:39.273Z,63232.00
2018-04-24T12:16:39.231Z,61664.00
2018-04-24T12:17:39.237Z,60864.00
2018-04-24T12:18:39.252Z,60224.00
2018-04-24T12:19:39.274Z,59616.00
2018-04-24T12:20:39.283Z,57568.00
2018-04-24T12:21:39.300Z,56544.00
2018-04-24T12:22:39.328Z,57440.00
2018-04-24T12:23:39.344Z,58016.00
2018-04-24T12:24:39.350Z,47648.00
2018-04-24T12:25:39.371Z,20416.00
2018-04-24T12:26:39.391Z,10336.00
2018-04-24T12:27:39.421Z,10540.00
2018-04-24T12:28:39.420Z,9808.00
2018-04-24T12:29:39.430Z,9200.00
2018-04-24T12:30:39.515Z,8976.00
2018-04-24T12:31:39.492Z,9096.00
2018-04-24T12:32:39.476Z,8928.00
2018-04-24T12:33:39.503Z,8908.00
2018-04-24T12:34:39.501Z,8780.00
2018-04-24T12:35:39.563Z,8832.00
2018-04-24T12:36:39.528Z,8812.00
2018-04-24T12:37:39.543Z,8752.00
2018-04-24T12:38:39.562Z,8684.00
2018-04-24T12:39:39.553Z,9188.00
2018-04-24T12:40:39.569Z,10924.00
2018-04-24T12:41:39.578Z,12148.00
2018-04-24T12:42:39.580Z,12136.00
2018-04-24T12:43:39.601Z,12684.00
2018-04-24T12:44:39.599Z,12812.00
2018-04-24T12:45:39.601Z,13596.00
2018-04-24T12:46:39.625Z,12860.00
2018-04-24T12:47:39.628Z,13372.00
2018-04-24T12:48:39.630Z,13520.00
2018-04-24T12:49:39.638Z,12300.00
2018-04-24T12:50:39.679Z,11296.00
2018-04-24T12:51:39.662Z,9968.00
2018-04-24T12:52:39.656Z,9300.00
2018-04-24T12:53:39.664Z,8772.00
2018-04-24T12:54:39.668Z,8484.00
2018-04-24T12:55:39.673Z,8724.00
2018-04-24T12:56:39.753Z,9176.00
2018-04-24T12:57:39.687Z,9624.00
2018-04-24T12:58:39.695Z,9420.00